createdAt,value
2024-03-02T00:01:55.427Z,99678.28
2024-03-02T00:04:23.585Z,99687.28
2024-03-02T00:06:55.951Z,99686.66
2024-03-02T00:09:24.479Z,99690.97
2024-03-02T00:11:53.107Z,99694.66
2024-03-02T00:14:21.655Z,99686.00
2024-03-02T00:16:49.839Z,99680.66
2024-03-02T00:19:19.648Z,99681.66
2024-03-02T00:21:48.842Z,99682.00
2024-03-02T00:24:28.965Z,99686.50
2024-03-02T00:26:57.089Z,99677.50
2024-03-02T00:29:25.784Z,99673.16
2024-03-02T00:31:54.583Z,99682.16
2024-03-02T00:34:24.790Z,99667.00
2024-03-02T00:36:53.088Z,99675.00
2024-03-02T00:39:21.520Z,99670.81
2024-03-02T00:41:49.665Z,99669.00
2024-03-02T00:44:22.089Z,99663.81
2024-03-02T00:46:50.233Z,99665.63
2024-03-02T00:49:24.873Z,99670.13
2024-03-02T00:51:55.563Z,99667.47
2024-03-02T00:54:25.830Z,99667.66
2024-03-02T00:56:56.180Z,99672.16
2024-03-02T00:59:25.336Z,99674.19
2024-03-02T01:01:55.090Z,99676.00
2024-03-02T01:04:24.614Z,99679.50
2024-03-02T01:06:53.082Z,99677.84
2024-03-02T01:09:21.621Z,99689.34
2024-03-02T01:11:49.878Z,99686.31
2024-03-02T01:14:18.193Z,99689.97
2024-03-02T01:16:46.411Z,99678.66
2024-03-02T01:19:14.746Z,99678.66
2024-03-02T01:21:44.484Z,99688.31
2024-03-02T01:24:14.327Z,99687.50
2024-03-02T01:26:42.499Z,99686.00
2024-03-02T01:29:10.671Z,99685.34
2024-03-02T01:31:38.780Z,99683.50
2024-03-02T01:34:06.965Z,99684.50
2024-03-02T01:36:35.233Z,99687.31
2024-03-02T01:39:05.162Z,99690.00
2024-03-02T01:41:33.240Z,99681.34
2024-03-02T01:44:01.401Z,99685.00
2024-03-02T01:46:29.884Z,99677.34
2024-03-02T01:48:58.060Z,99673.03
2024-03-02T01:51:26.214Z,99680.38
2024-03-02T01:53:54.489Z,99671.72
2024-03-02T01:56:24.099Z,99665.53
2024-03-02T01:58:52.343Z,99671.72
2024-03-02T02:01:20.552Z,99660.56
2024-03-02T02:03:48.732Z,99663.22
2024-03-02T02:06:17.006Z,99660.72
2024-03-02T02:08:46.309Z,99659.06
2024-03-02T02:11:17.714Z,99657.41
2024-03-02T02:13:47.269Z,99658.41
2024-03-02T02:16:15.457Z,99654.06
2024-03-02T02:18:43.676Z,99651.38
2024-03-02T02:21:11.859Z,99645.06
2024-03-02T02:23:43.419Z,99638.06
2024-03-02T02:26:11.496Z,99638.91
2024-03-02T02:28:39.845Z,99642.41
2024-03-02T02:31:08.734Z,99637.06
2024-03-02T02:33:41.314Z,99636.44
2024-03-02T02:36:11.169Z,99639.94
2024-03-02T02:38:47.814Z,99639.09
2024-03-02T02:41:15.907Z,99633.75
2024-03-02T02:43:44.220Z,99638.25
2024-03-02T02:46:11.403Z,99644.75
2024-03-02T02:48:39.569Z,99644.75
2024-03-02T02:51:07.711Z,99644.09
2024-03-02T02:53:36.589Z,99652.06
2024-03-02T02:56:06.755Z,99645.06
2024-03-02T02:58:35.117Z,99641.41
2024-03-02T03:01:03.284Z,99646.25
2024-03-02T03:03:31.554Z,99629.44
2024-03-02T03:05:59.700Z,99640.09
2024-03-02T03:08:27.808Z,99636.78
2024-03-02T03:10:56.020Z,99635.94
2024-03-02T03:13:27.622Z,99635.09
2024-03-02T03:15:55.884Z,99631.78
2024-03-02T03:18:24.014Z,99630.13
2024-03-02T03:20:52.152Z,99640.78
2024-03-02T03:23:20.222Z,99630.31
2024-03-02T03:25:48.389Z,99636.63
2024-03-02T03:28:15.586Z,99634.09
2024-03-02T03:30:45.199Z,99632.47
2024-03-02T03:33:13.309Z,99626.47
2024-03-02T03:35:41.380Z,99630.13
2024-03-02T03:38:09.532Z,99624.13
2024-03-02T03:40:38.126Z,99628.81
2024-03-02T03:43:06.444Z,99629.81
2024-03-02T03:45:35.225Z,99623.81
2024-03-02T03:48:05.153Z,99630.16
2024-03-02T03:50:33.265Z,99631.81
2024-03-02T03:53:01.330Z,99624.97
2024-03-02T03:55:29.610Z,99630.00
2024-03-02T03:57:58.052Z,99626.50
2024-03-02T04:00:26.471Z,99616.81
2024-03-02T04:02:54.590Z,99616.19
2024-03-02T04:05:24.003Z,99614.50
2024-03-02T04:07:52.137Z,99620.00
2024-03-02T04:10:21.917Z,99618.69
2024-03-02T04:12:52.500Z,99627.16
2024-03-02T04:15:20.907Z,99631.66
2024-03-02T04:17:49.044Z,99629.00
2024-03-02T04:20:17.198Z,99619.16
2024-03-02T04:22:46.632Z,99620.00
2024-03-02T04:25:15.036Z,99631.81
2024-03-02T04:27:43.949Z,99631.16
2024-03-02T04:30:13.478Z,99619.84
2024-03-02T04:32:41.649Z,99627.16
2024-03-02T04:35:11.119Z,99632.50
2024-03-02T04:37:39.718Z,99633.47
2024-03-02T04:40:11.399Z,99629.97
2024-03-02T04:42:39.587Z,99637.13
2024-03-02T04:45:09.267Z,99632.81
2024-03-02T04:47:37.362Z,99627.31
2024-03-02T04:50:08.813Z,99627.50
2024-03-02T04:52:36.998Z,99624.16
2024-03-02T04:55:20.797Z,99624.34
2024-03-02T04:57:52.058Z,99622.66
2024-03-02T05:00:20.744Z,99623.66
2024-03-02T05:02:48.922Z,99630.00
2024-03-02T05:05:17.031Z,99629.31
2024-03-02T05:07:45.481Z,99636.66
2024-03-02T05:10:13.727Z,99642.13
2024-03-02T05:12:57.786Z,99640.78
2024-03-02T05:15:27.845Z,99640.97
2024-03-02T05:17:58.094Z,99638.78
2024-03-02T05:20:26.413Z,99637.09
2024-03-02T05:22:54.528Z,99631.13
2024-03-02T05:25:22.622Z,99635.78
2024-03-02T05:27:50.807Z,99635.94
2024-03-02T05:30:19.191Z,99630.78
2024-03-02T05:32:48.653Z,99626.63
2024-03-02T05:35:16.827Z,99631.94
2024-03-02T05:37:44.916Z,99635.44
2024-03-02T05:40:14.140Z,99635.63
2024-03-02T05:42:42.656Z,99630.59
2024-03-02T05:45:11.402Z,99634.28
2024-03-02T05:47:39.737Z,99629.09
2024-03-02T05:50:10.240Z,99636.44
2024-03-02T05:52:38.379Z,99629.59
2024-03-02T05:55:07.405Z,99631.44
2024-03-02T05:57:48.668Z,99626.28
2024-03-02T06:00:18.944Z,99636.06
2024-03-02T06:02:47.569Z,99624.78
2024-03-02T06:05:17.902Z,99634.56
2024-03-02T06:07:48.554Z,99631.41
2024-03-02T06:10:16.831Z,99643.03
2024-03-02T06:12:45.238Z,99642.06
2024-03-02T06:15:13.369Z,99639.38
2024-03-02T06:17:41.511Z,99649.38
2024-03-02T06:20:11.724Z,99647.69
2024-03-02T06:22:41.179Z,99657.34
2024-03-02T06:25:10.121Z,99653.66
2024-03-02T06:27:38.320Z,99653.66
2024-03-02T06:30:07.862Z,99653.66
2024-03-02T06:32:36.081Z,99651.84
2024-03-02T06:35:05.894Z,99653.53
2024-03-02T06:37:34.043Z,99656.19
2024-03-02T06:40:03.759Z,99653.53
2024-03-02T06:42:34.462Z,99663.31
2024-03-02T06:45:03.308Z,99661.31
2024-03-02T06:47:31.543Z,99670.66
2024-03-02T06:50:00.340Z,99681.94
2024-03-02T06:52:28.465Z,99676.63
2024-03-02T06:54:56.575Z,99674.81
2024-03-02T06:57:26.226Z,99676.47
2024-03-02T06:59:56.012Z,99673.81
2024-03-02T07:02:24.182Z,99677.97
2024-03-02T07:04:52.476Z,99676.16
2024-03-02T07:07:20.636Z,99673.31
2024-03-02T07:09:49.312Z,99673.16
2024-03-02T07:12:17.591Z,99673.81
2024-03-02T07:15:08.969Z,99687.97
2024-03-02T07:17:38.209Z,99691.97
2024-03-02T07:20:08.003Z,99688.31
2024-03-02T07:22:36.115Z,99681.84
2024-03-02T07:25:04.791Z,99682.69
2024-03-02T07:27:34.776Z,99683.34
2024-03-02T07:30:04.535Z,99686.66
2024-03-02T07:32:32.648Z,99697.00
2024-03-02T07:35:02.351Z,99698.63
2024-03-02T07:37:30.541Z,99690.50
2024-03-02T07:39:59.274Z,99690.31
2024-03-02T07:42:27.509Z,99699.84
2024-03-02T07:44:55.601Z,99705.81
2024-03-02T07:47:25.083Z,99711.00
2024-03-02T07:49:53.209Z,99707.81
2024-03-02T07:52:21.345Z,99714.50
2024-03-02T07:54:49.494Z,99713.50
2024-03-02T07:57:17.668Z,99716.66
2024-03-02T07:59:45.869Z,99715.34
2024-03-02T08:02:14.581Z,99714.00
2024-03-02T08:04:44.444Z,99726.00
2024-03-02T08:07:12.607Z,99729.84
2024-03-02T08:09:40.744Z,99733.69
2024-03-02T08:12:09.751Z,99724.03
2024-03-02T08:14:37.890Z,99728.03
2024-03-02T08:17:10.523Z,99724.69
2024-03-02T08:19:39.854Z,99722.06
2024-03-02T08:22:09.546Z,99724.69
2024-03-02T08:24:38.593Z,99720.38
2024-03-02T08:27:07.013Z,99730.69
2024-03-02T08:29:35.196Z,99738.84
2024-03-02T08:32:03.636Z,99721.34
2024-03-02T08:34:31.730Z,99726.50
2024-03-02T08:36:59.961Z,99724.66
2024-03-02T08:39:29.731Z,99726.31
2024-03-02T08:41:57.994Z,99720.13
2024-03-02T08:44:26.378Z,99723.78
2024-03-02T08:46:54.537Z,99722.94
2024-03-02T08:49:22.893Z,99730.56
2024-03-02T08:51:55.784Z,99727.56
2024-03-02T08:54:24.438Z,99742.88
2024-03-02T08:56:54.057Z,99742.34
2024-03-02T08:59:22.255Z,99737.16
2024-03-02T09:01:50.513Z,99742.78
2024-03-02T09:04:18.859Z,99743.28
2024-03-02T09:06:47.000Z,99737.06
2024-03-02T09:09:15.184Z,99744.38
2024-03-02T09:11:43.437Z,99744.50
2024-03-02T09:14:12.944Z,99750.66
2024-03-02T09:16:41.059Z,99744.25
2024-03-02T09:19:08.604Z,99751.22
2024-03-02T09:21:36.730Z,99747.13
2024-03-02T09:24:05.357Z,99748.44
2024-03-02T09:26:33.675Z,99752.09
2024-03-02T09:29:01.940Z,99748.19
2024-03-02T09:31:31.578Z,99745.88
2024-03-02T09:33:59.735Z,99754.31
2024-03-02T09:36:27.938Z,99759.09
2024-03-02T09:38:56.070Z,99754.53
2024-03-02T09:41:24.458Z,99753.50
2024-03-02T09:43:53.244Z,99759.78
2024-03-02T09:46:22.209Z,99760.16
2024-03-02T09:48:52.112Z,99766.75
2024-03-02T09:51:21.852Z,99766.38
2024-03-02T09:53:51.141Z,99764.56
2024-03-02T09:56:20.052Z,99767.03
2024-03-02T09:58:48.222Z,99768.06
2024-03-02T10:01:16.398Z,99763.84
2024-03-02T10:03:51.222Z,99759.34
2024-03-02T10:06:26.260Z,99761.00
2024-03-02T10:08:55.943Z,99764.31
2024-03-02T10:11:30.424Z,99760.91
2024-03-02T10:14:10.197Z,99764.44
2024-03-02T10:16:39.732Z,99774.75
2024-03-02T10:19:23.011Z,99772.56
2024-03-02T10:21:54.346Z,99779.56
2024-03-02T10:24:24.414Z,99775.53
2024-03-02T10:26:53.513Z,99775.78
2024-03-02T10:29:21.767Z,99771.56
2024-03-02T10:31:49.958Z,99767.69
2024-03-02T10:34:18.285Z,99759.09
2024-03-02T10:36:47.443Z,99767.78
2024-03-02T10:39:17.147Z,99771.56
2024-03-02T10:41:49.480Z,99764.00
2024-03-02T10:44:18.999Z,99771.66
2024-03-02T10:46:51.607Z,99772.94
2024-03-02T10:49:21.229Z,99778.97
2024-03-02T10:51:49.401Z,99780.44
2024-03-02T10:54:26.975Z,99780.53
2024-03-02T10:56:58.311Z,99779.59
2024-03-02T10:59:31.733Z,99788.19
2024-03-02T11:02:05.393Z,99783.75
2024-03-02T11:04:36.024Z,99779.78
2024-03-02T11:07:08.594Z,99781.47
2024-03-02T11:09:43.925Z,99780.38
2024-03-02T11:12:21.376Z,99782.91
2024-03-02T11:14:49.558Z,99787.41
2024-03-02T11:17:19.067Z,99789.06
2024-03-02T11:19:49.967Z,99785.84
2024-03-02T11:22:19.284Z,99782.22
2024-03-02T11:24:53.909Z,99781.09
2024-03-02T11:28:04.819Z,99793.00
2024-03-02T11:30:55.409Z,99785.03
2024-03-02T11:33:30.712Z,99781.72
2024-03-02T11:36:02.641Z,99786.31
2024-03-02T11:38:33.405Z,99783.88
2024-03-02T11:41:05.092Z,99789.09
2024-03-02T11:43:34.239Z,99788.97
2024-03-02T11:46:05.700Z,99794.16
2024-03-02T11:48:35.048Z,99786.31
2024-03-02T11:51:03.496Z,99789.44
2024-03-02T11:53:35.960Z,99780.59
2024-03-02T11:56:10.441Z,99775.50
2024-03-02T11:58:42.370Z,99766.66
2024-03-02T12:01:10.832Z,99768.31
2024-03-02T12:03:40.262Z,99770.16
2024-03-02T12:06:09.261Z,99767.44
2024-03-02T12:08:38.499Z,99762.06
2024-03-02T12:11:08.635Z,99762.25
2024-03-02T12:13:36.821Z,99762.88
2024-03-02T12:16:06.199Z,99763.03
2024-03-02T12:18:34.508Z,99762.88
2024-03-02T12:21:04.105Z,99770.28
2024-03-02T12:23:32.337Z,99757.50
2024-03-02T12:26:00.804Z,99754.41
2024-03-02T12:28:32.398Z,99750.50
2024-03-02T12:31:01.146Z,99749.28
2024-03-02T12:33:30.594Z,99752.22
2024-03-02T12:35:59.598Z,99751.00
2024-03-02T12:38:28.443Z,99741.13
2024-03-02T12:40:56.599Z,99739.53
2024-03-02T12:43:25.067Z,99739.22
2024-03-02T12:45:57.154Z,99739.94
2024-03-02T12:48:25.559Z,99743.31
2024-03-02T12:50:54.180Z,99744.41
2024-03-02T12:53:24.166Z,99753.09
2024-03-02T12:55:52.585Z,99745.69
2024-03-02T12:58:23.072Z,99757.47
2024-03-02T13:00:51.642Z,99739.25
2024-03-02T13:03:23.820Z,99743.19
2024-03-02T13:05:52.506Z,99744.84
2024-03-02T13:08:20.980Z,99731.56
2024-03-02T13:10:49.405Z,99734.44
2024-03-02T13:13:17.594Z,99733.16
2024-03-02T13:15:46.228Z,99731.88
2024-03-02T13:18:14.780Z,99743.47
2024-03-02T13:20:44.522Z,99735.78
2024-03-02T13:23:12.626Z,99729.97
2024-03-02T13:25:40.729Z,99731.00
2024-03-02T13:28:09.771Z,99728.88
2024-03-02T13:30:38.140Z,99733.47
2024-03-02T13:33:06.945Z,99736.69
2024-03-02T13:35:35.187Z,99733.97
2024-03-02T13:38:04.969Z,99736.47
2024-03-02T13:40:36.537Z,99735.81
2024-03-02T13:43:05.608Z,99739.47
2024-03-02T13:45:33.798Z,99734.03
2024-03-02T13:48:04.538Z,99723.56
2024-03-02T13:50:32.780Z,99731.47
2024-03-02T13:53:01.051Z,99726.00
2024-03-02T13:55:30.537Z,99733.63
2024-03-02T13:57:59.233Z,99721.34
2024-03-02T14:00:27.691Z,99717.16
2024-03-02T14:02:55.865Z,99713.63
2024-03-02T14:05:24.186Z,99713.63
2024-03-02T14:07:52.293Z,99722.13
2024-03-02T14:10:23.420Z,99712.88
2024-03-02T14:12:53.094Z,99713.50
2024-03-02T14:15:22.005Z,99712.88
2024-03-02T14:17:50.937Z,99712.41
2024-03-02T14:20:22.987Z,99714.34
2024-03-02T14:22:51.585Z,99711.81
2024-03-02T14:25:20.176Z,99710.34
2024-03-02T14:28:07.858Z,99713.38
2024-03-02T14:30:38.395Z,99710.69
2024-03-02T14:33:07.260Z,99715.56
2024-03-02T14:35:35.719Z,99710.38
2024-03-02T14:38:04.491Z,99706.63
2024-03-02T14:40:32.636Z,99706.41
2024-03-02T14:43:00.963Z,99699.13
2024-03-02T14:45:29.195Z,99705.78
2024-03-02T14:48:00.747Z,99699.47
2024-03-02T14:50:29.369Z,99701.34
2024-03-02T14:52:59.810Z,99691.44
2024-03-02T14:55:29.080Z,99703.19
2024-03-02T14:57:57.276Z,99703.34
2024-03-02T15:00:25.465Z,99694.19
2024-03-02T15:02:53.965Z,99692.75
2024-03-02T15:05:23.411Z,99699.50
2024-03-02T15:07:51.530Z,99702.78
2024-03-02T15:10:19.875Z,99699.63
2024-03-02T15:12:48.165Z,99697.50
2024-03-02T15:15:17.144Z,99698.03
2024-03-02T15:17:45.451Z,99687.72
2024-03-02T15:20:13.891Z,99692.41
2024-03-02T15:22:43.406Z,99697.97
2024-03-02T15:25:11.663Z,99687.16
2024-03-02T15:27:41.023Z,99684.28
2024-03-02T15:30:10.234Z,99679.56
2024-03-02T15:32:39.844Z,99690.16
2024-03-02T15:35:08.959Z,99690.81
2024-03-02T15:37:37.183Z,99681.53
2024-03-02T15:40:09.639Z,99685.69
2024-03-02T15:42:38.359Z,99685.75
2024-03-02T15:45:08.286Z,99686.22
2024-03-02T15:47:37.239Z,99681.00
2024-03-02T15:50:06.813Z,99687.63
2024-03-02T15:52:35.091Z,99682.44
2024-03-02T15:55:06.741Z,99683.69
2024-03-02T15:57:37.390Z,99684.94
2024-03-02T16:00:07.766Z,99686.56
2024-03-02T16:02:35.891Z,99680.38
2024-03-02T16:05:04.130Z,99686.22
2024-03-02T16:07:33.025Z,99684.81
2024-03-02T16:10:04.516Z,99679.47
2024-03-02T16:12:32.862Z,99680.94
2024-03-02T16:15:02.390Z,99680.34
2024-03-02T16:17:30.533Z,99681.00
2024-03-02T16:19:59.441Z,99681.22
2024-03-02T16:22:27.728Z,99672.75
2024-03-02T16:24:55.845Z,99674.63
2024-03-02T16:27:23.994Z,99674.03
2024-03-02T16:29:52.160Z,99674.66
2024-03-02T16:32:21.641Z,99671.31
2024-03-02T16:34:49.894Z,99678.81
2024-03-02T16:37:18.030Z,99675.28
2024-03-02T16:39:46.177Z,99688.56
2024-03-02T16:42:16.004Z,99680.25
2024-03-02T16:44:44.090Z,99683.56
2024-03-02T16:47:13.914Z,99676.75
2024-03-02T16:49:46.565Z,99679.22
2024-03-02T16:52:15.965Z,99686.06
2024-03-02T16:54:44.238Z,99684.41
2024-03-02T16:57:13.781Z,99684.81
2024-03-02T16:59:42.688Z,99683.34
2024-03-02T17:02:11.470Z,99681.06
2024-03-02T17:04:40.013Z,99687.47
2024-03-02T17:07:09.715Z,99686.66
2024-03-02T17:09:37.972Z,99690.56
2024-03-02T17:12:06.900Z,99693.03
2024-03-02T17:14:35.010Z,99693.81
2024-03-02T17:17:03.152Z,99700.25
2024-03-02T17:19:31.285Z,99697.97
2024-03-02T17:21:59.468Z,99693.59
2024-03-02T17:24:28.955Z,99696.47
2024-03-02T17:26:59.226Z,99700.16
2024-03-02T17:29:27.402Z,99710.25
2024-03-02T17:31:56.844Z,99703.63
2024-03-02T17:34:25.095Z,99701.56
2024-03-02T17:36:53.464Z,99704.00
2024-03-02T17:39:21.565Z,99709.97
2024-03-02T17:41:52.178Z,99715.56
2024-03-02T17:44:20.267Z,99716.34
2024-03-02T17:46:48.476Z,99715.91
2024-03-02T17:49:20.325Z,99716.72
2024-03-02T17:51:48.974Z,99714.66
2024-03-02T17:54:17.353Z,99709.66
2024-03-02T17:56:45.485Z,99715.44
2024-03-02T17:59:15.011Z,99713.97
2024-03-02T18:01:43.128Z,99715.59
2024-03-02T18:04:11.526Z,99717.44
2024-03-02T18:06:39.762Z,99729.22
2024-03-02T18:09:08.561Z,99732.69
2024-03-02T18:11:36.893Z,99727.50
2024-03-02T18:14:04.998Z,99726.22
2024-03-02T18:16:34.510Z,99727.22
2024-03-02T18:19:05.122Z,99720.53
2024-03-02T18:21:34.185Z,99716.84
2024-03-02T18:24:02.314Z,99726.25
2024-03-02T18:26:30.652Z,99727.94
2024-03-02T18:28:58.764Z,99722.50
2024-03-02T18:31:26.993Z,99725.38
2024-03-02T18:33:56.591Z,99726.59
2024-03-02T18:36:24.838Z,99726.16
2024-03-02T18:38:53.020Z,99736.84
2024-03-02T18:41:21.154Z,99731.88
2024-03-02T18:43:49.260Z,99727.25
2024-03-02T18:46:17.387Z,99723.72
2024-03-02T18:48:45.599Z,99720.59
2024-03-02T18:51:15.074Z,99728.22
2024-03-02T18:53:44.845Z,99725.72
2024-03-02T18:56:13.042Z,99731.63
2024-03-02T18:58:41.225Z,99730.09
2024-03-02T19:01:10.570Z,99733.56
2024-03-02T19:03:38.835Z,99725.50
2024-03-02T19:06:08.879Z,99733.56
2024-03-02T19:08:38.478Z,99725.69
2024-03-02T19:11:06.638Z,99731.38
2024-03-02T19:13:34.846Z,99731.38
2024-03-02T19:16:03.013Z,99726.41
2024-03-02T19:18:31.263Z,99735.81
2024-03-02T19:20:59.413Z,99731.69
2024-03-02T19:23:32.245Z,99724.59
2024-03-02T19:26:06.121Z,99725.97
2024-03-02T19:28:34.267Z,99726.34
2024-03-02T19:31:03.181Z,99722.38
2024-03-02T19:33:31.449Z,99725.19
2024-03-02T19:35:59.735Z,99724.28
2024-03-02T19:38:28.283Z,99717.88
2024-03-02T19:40:56.414Z,99724.00
2024-03-02T19:43:25.853Z,99718.41
2024-03-02T19:45:54.142Z,99717.09
2024-03-02T19:48:22.360Z,99712.75
2024-03-02T19:50:51.376Z,99717.09
2024-03-02T19:53:19.515Z,99707.41
2024-03-02T19:55:47.883Z,99713.50
2024-03-02T19:58:16.483Z,99707.50
2024-03-02T20:00:46.218Z,99707.50
2024-03-02T20:03:15.203Z,99717.75
2024-03-02T20:05:43.367Z,99709.63
2024-03-02T20:08:11.489Z,99706.16
2024-03-02T20:10:39.706Z,99700.50
2024-03-02T20:13:08.659Z,99705.69
2024-03-02T20:15:37.072Z,99702.56
2024-03-02T20:18:07.269Z,99709.66
2024-03-02T20:20:35.481Z,99704.22
2024-03-02T20:23:03.672Z,99702.63
2024-03-02T20:25:31.772Z,99702.44
2024-03-02T20:28:00.452Z,99703.66
2024-03-02T20:30:28.716Z,99705.66
2024-03-02T20:32:56.917Z,99698.00
2024-03-02T20:35:26.485Z,99704.09
2024-03-02T20:37:54.701Z,99695.25
2024-03-02T20:40:22.898Z,99702.84
2024-03-02T20:42:51.109Z,99705.34
2024-03-02T20:45:19.622Z,99698.00
2024-03-02T20:47:47.991Z,99702.50
2024-03-02T20:50:16.430Z,99698.69
2024-03-02T20:52:46.387Z,99699.22
2024-03-02T20:55:14.879Z,99692.41
2024-03-02T20:57:43.101Z,99693.97
2024-03-02T21:00:12.433Z,99694.16
2024-03-02T21:02:40.683Z,99698.88
2024-03-02T21:05:10.280Z,99691.38
2024-03-02T21:07:39.364Z,99693.41
2024-03-02T21:10:10.775Z,99692.09
2024-03-02T21:12:39.840Z,99686.75
2024-03-02T21:15:09.300Z,99691.16
2024-03-02T21:17:37.501Z,99682.19
2024-03-02T21:20:09.996Z,99681.56
2024-03-02T21:22:39.555Z,99684.41
2024-03-02T21:25:12.990Z,99683.28
2024-03-02T21:27:41.968Z,99685.97
2024-03-02T21:30:11.630Z,99679.13
2024-03-02T21:32:39.902Z,99679.94
2024-03-02T21:35:09.042Z,99678.38
2024-03-02T21:37:37.186Z,99678.38
2024-03-02T21:40:08.768Z,99672.34
2024-03-02T21:42:37.062Z,99676.22
2024-03-02T21:45:06.202Z,99670.41
2024-03-02T21:47:34.398Z,99663.59
2024-03-02T21:50:02.515Z,99668.81
2024-03-02T21:52:30.603Z,99664.31
2024-03-02T21:54:58.777Z,99667.34
2024-03-02T21:57:28.287Z,99664.00
2024-03-02T21:59:56.392Z,99670.16
2024-03-02T22:02:24.515Z,99664.19
2024-03-02T22:04:52.623Z,99662.50
2024-03-02T22:07:20.981Z,99653.66
2024-03-02T22:09:49.113Z,99652.34
2024-03-02T22:12:17.214Z,99659.88
2024-03-02T22:14:46.654Z,99649.41
2024-03-02T22:17:14.823Z,99648.94
2024-03-02T22:19:42.997Z,99653.13
2024-03-02T22:22:11.321Z,99647.66
2024-03-02T22:24:39.442Z,99643.00
2024-03-02T22:27:07.663Z,99647.16
2024-03-02T22:29:35.943Z,99637.88
2024-03-02T22:32:06.832Z,99640.22
2024-03-02T22:34:35.537Z,99640.59
2024-03-02T22:37:03.839Z,99642.06
2024-03-02T22:39:32.029Z,99645.44
2024-03-02T22:42:00.107Z,99640.59
2024-03-02T22:44:28.223Z,99638.91
2024-03-02T22:46:56.595Z,99630.75
2024-03-02T22:49:26.050Z,99633.41
2024-03-02T22:51:54.157Z,99634.56
2024-03-02T22:54:22.332Z,99638.44
2024-03-02T22:56:50.448Z,99635.13
2024-03-02T22:59:18.657Z,99626.63
2024-03-02T23:01:46.896Z,99629.66
2024-03-02T23:04:15.223Z,99626.16
2024-03-02T23:06:44.770Z,99628.81
2024-03-02T23:09:13.464Z,99638.03
2024-03-02T23:11:41.594Z,99629.19
2024-03-02T23:14:10.699Z,99626.66
2024-03-02T23:16:45.088Z,99624.19
2024-03-02T23:19:15.126Z,99630.53
2024-03-02T23:21:44.736Z,99623.22
2024-03-02T23:24:12.834Z,99622.41
2024-03-02T23:26:41.208Z,99617.41
2024-03-02T23:29:09.323Z,99615.91
2024-03-02T23:31:37.508Z,99611.75
2024-03-02T23:34:06.439Z,99609.91
2024-03-02T23:36:35.382Z,99611.94
2024-03-02T23:39:05.822Z,99610.44
2024-03-02T23:41:34.770Z,99605.28
2024-03-02T23:44:03.177Z,99604.63
2024-03-02T23:46:31.368Z,99600.66
2024-03-02T23:48:59.545Z,99606.31
2024-03-02T23:51:27.673Z,99604.66
2024-03-02T23:53:55.761Z,99605.03
2024-03-02T23:56:25.265Z,99606.81
2024-03-02T23:58:53.343Z,99609.34
